USTRANSCOM 7529


BIKF
Keflavík International Airport
Reykjavík, IS
ETAR
Ramstein Air Force Base
Ramstein, DE

Activity Log

Date Flight Route Aircraft Duration
01/02/2020 CMB7529 OSKUM 6215N AKIVO UN601 TLA L602 ERKIT N110 DOLAS L603 BUKUT LAMSO T606 SPY LOPIK N852 LNO SPA B752 3h 18m

Route Details

Aircraft Information
Primary: Boeing 757-200SF
Backup: Not Available
Route Data
Distance: 1305nm
Sched. Duration: 3h 20m
Avg. Duration: 3h 18m (-1m)
Times Flown: 1
Recm'd Route: OSKUM2C OSKUM ROSTI G3 MY G11 PEMOS SUM L7 LONAM UL7 SPY UN852 LNO PFF
Planned Altitude: 35,000ft
Origin Wx: BIKF 271630Z 07023KT 0400 R10/0450N SN BLSN BKN003 OVC006 M03/M04 Q0992 R10/450049
Dest. Wx: ETAR 271631Z 01004KT 3600 -SN BR BKN003 OVC007 00/00 A2918 RMK AO2A SLP895 FZRANO $
Notes: USTRANSCOM CONTRACT FLIGHT

Financial History
Total Freight: 30,623lbs
Average Load: 30,623lbs/flt
Fuel Used: 22,066lbs
Avg. Fuel Used: 22,066lbs/flt
Fuel Expense: $17,653
Avg. Fuel Expense: $17,653
Avg. Fuel Cost: $0.80/lbs
Total Gross Income: $56,040
Pilot Pay: $99
Total Expenses: $6,104
Total Revenue: $31,967
Average Revenue: $56,040.09